Time;durP1;ratioP1;P1;durP2;ratioP2;P2;SDS_P1;SDS_P2;PMS_P1;PMS_P2;Temp;Humidity;BMP_temperature;BMP_pressure;BME280_temperature;BME280_humidity;BME280_pressure;Samples;Min_cycle;Max_cycle;Signal;HPM_P1;HPM_P2
2022/11/03 00:02:01;;;;;;;35.57;21.43;;;13.70;99.90;;;;;;5115689;28;20174;-72
2022/11/03 00:04:27;;;;;;;32.40;20.53;;;13.70;99.90;;;;;;5097287;28;20223;-76
2022/11/03 00:06:53;;;;;;;32.70;22.53;;;13.70;99.90;;;;;;5097351;28;20546;-75
2022/11/03 00:09:20;;;;;;;33.47;21.07;;;13.70;99.90;;;;;;5097272;28;20191;-76
2022/11/03 00:11:49;;;;;;;35.37;21.87;;;13.70;99.90;;;;;;5115476;28;20405;-72
2022/11/03 00:14:15;;;;;;;41.40;20.90;;;13.70;99.90;;;;;;5115644;28;20818;-73
2022/11/03 00:16:42;;;;;;;34.00;21.07;;;13.70;99.90;;;;;;5097124;28;20499;-73
2022/11/03 00:19:09;;;;;;;26.77;18.30;;;13.70;99.90;;;;;;5115562;28;20750;-73
2022/11/03 00:21:36;;;;;;;31.17;20.20;;;13.70;99.90;;;;;;5114067;28;20458;-72
2022/11/03 00:24:02;;;;;;;36.07;21.27;;;13.70;99.90;;;;;;5096304;28;20510;-77
2022/11/03 00:26:30;;;;;;;32.27;21.13;;;13.60;99.90;;;;;;5113389;28;20845;-73
2022/11/03 00:28:59;;;;;;;33.43;21.60;;;13.60;99.90;;;;;;5096962;28;20874;-73
2022/11/03 00:31:32;;;;;;;34.90;21.50;;;13.60;99.90;;;;;;5114982;28;20481;-73
2022/11/03 00:33:59;;;;;;;31.93;21.17;;;13.60;99.90;;;;;;5096895;28;20928;-76
2022/11/03 00:36:30;;;;;;;30.67;21.20;;;13.60;99.90;;;;;;5096634;28;20439;-76
2022/11/03 00:38:56;;;;;;;36.87;21.43;;;13.60;99.90;;;;;;5096935;28;20507;-76
2022/11/03 00:41:24;;;;;;;34.37;20.47;;;13.60;99.90;;;;;;5114844;28;20999;-76
2022/11/03 00:43:50;;;;;;;30.60;19.87;;;13.50;99.90;;;;;;5096624;28;20420;-73
2022/11/03 00:46:17;;;;;;;32.20;20.40;;;13.50;99.90;;;;;;5096609;28;20966;-76
2022/11/03 00:48:42;;;;;;;28.03;18.90;;;13.50;99.90;;;;;;5115040;28;20408;-76
2022/11/03 00:51:16;;;;;;;33.53;20.37;;;13.50;99.90;;;;;;5114700;28;20764;-75
2022/11/03 00:53:52;;;;;;;28.10;18.93;;;13.50;99.90;;;;;;5096818;28;20167;-76
2022/11/03 00:56:24;;;;;;;30.17;19.30;;;13.50;99.90;;;;;;5114645;28;20432;-75
2022/11/03 00:58:50;;;;;;;35.87;20.73;;;13.40;99.90;;;;;;5114895;28;20412;-76
2022/11/03 01:01:24;;;;;;;28.00;18.80;;;13.40;99.90;;;;;;5113166;28;20440;-73
2022/11/03 01:06:49;;;;;;;30.03;19.57;;;13.40;99.90;;;;;;5114827;28;20399;-76
2022/11/03 01:09:30;;;;;;;29.30;20.70;;;13.40;99.90;;;;;;5113211;28;20420;-76
2022/11/03 01:12:00;;;;;;;25.47;19.30;;;13.40;99.90;;;;;;5096287;28;20880;-76
2022/11/03 01:14:38;;;;;;;29.63;18.93;;;13.30;99.90;;;;;;5113172;28;20979;-76
2022/11/03 01:17:09;;;;;;;25.73;18.67;;;13.30;99.90;;;;;;5114435;28;20397;-72
2022/11/03 01:19:35;;;;;;;29.50;19.43;;;13.30;99.90;;;;;;5096169;28;20432;-72
2022/11/03 01:22:01;;;;;;;27.93;19.10;;;13.30;99.90;;;;;;5114280;28;20901;-74
2022/11/03 01:24:26;;;;;;;30.87;19.87;;;13.30;99.90;;;;;;5113838;28;20700;-76
2022/11/03 01:26:52;;;;;;;31.80;18.37;;;13.30;99.90;;;;;;5095976;28;20435;-74
2022/11/03 01:29:17;;;;;;;25.03;19.60;;;13.20;99.90;;;;;;5114556;28;20663;-76
2022/11/03 01:31:43;;;;;;;25.90;18.13;;;13.20;99.90;;;;;;5095950;28;20175;-75
2022/11/03 01:34:14;;;;;;;29.33;17.57;;;13.20;99.90;;;;;;5114322;28;20225;-72
2022/11/03 01:36:40;;;;;;;29.20;18.47;;;13.20;99.90;;;;;;5113875;28;20163;-76
2022/11/03 01:39:05;;;;;;;25.70;17.70;;;13.20;99.90;;;;;;5114225;28;20431;-73
2022/11/03 01:41:31;;;;;;;28.03;17.47;;;13.20;99.90;;;;;;5112857;28;20274;-76
2022/11/03 01:44:06;;;;;;;28.63;18.87;;;13.20;99.90;;;;;;5114281;28;20621;-72
2022/11/03 01:46:36;;;;;;;29.00;17.83;;;13.20;99.90;;;;;;5095886;28;20656;-72
2022/11/03 01:49:15;;;;;;;28.67;18.60;;;13.20;99.90;;;;;;5114298;28;20424;-76
2022/11/03 01:51:45;;;;;;;22.30;16.87;;;13.20;99.90;;;;;;5114028;28;20392;-76
2022/11/03 01:54:17;;;;;;;29.43;18.50;;;13.20;99.90;;;;;;5095737;28;20758;-72
2022/11/03 01:56:47;;;;;;;29.43;19.87;;;13.20;99.90;;;;;;5114038;28;20441;-72
2022/11/03 01:59:15;;;;;;;25.83;17.30;;;13.20;99.90;;;;;;5113669;28;20931;-76
2022/11/03 02:01:43;;;;;;;27.07;19.30;;;13.20;99.90;;;;;;5112597;28;20912;-76
2022/11/03 02:04:19;;;;;;;29.50;18.90;;;13.20;99.90;;;;;;5114108;28;20914;-73
2022/11/03 02:06:48;;;;;;;26.23;17.57;;;13.20;99.90;;;;;;5113982;28;20773;-73
2022/11/03 02:09:14;;;;;;;27.40;17.23;;;13.20;99.90;;;;;;5112528;28;20424;-73
2022/11/03 02:14:24;;;;;;;25.10;16.40;;;13.20;99.90;;;;;;5114174;28;20214;-72
2022/11/03 02:16:56;;;;;;;25.73;16.30;;;13.20;99.90;;;;;;5095554;28;20432;-73
2022/11/03 02:19:33;;;;;;;27.03;16.97;;;13.10;99.90;;;;;;5095593;28;20194;-73
2022/11/03 02:22:28;;;;;;;22.97;17.00;;;13.10;99.90;;;;;;5113680;28;20424;-76
2022/11/03 02:25:00;;;;;;;25.97;17.90;;;13.10;99.90;;;;;;5113356;28;20471;-76
2022/11/03 02:27:25;;;;;;;27.27;17.30;;;13.10;99.90;;;;;;5113846;28;20475;-76
2022/11/03 02:29:51;;;;;;;28.87;17.90;;;13.10;99.90;;;;;;5114074;28;20813;-73
2022/11/03 02:32:27;;;;;;;24.80;16.97;;;13.10;99.90;;;;;;5095427;28;20663;-74
2022/11/03 02:35:12;;;;;;;32.57;17.93;;;13.00;99.90;;;;;;5114068;28;20196;-76
2022/11/03 02:37:42;;;;;;;29.40;18.77;;;13.00;99.90;;;;;;5113529;28;20389;-76
2022/11/03 02:40:30;;;;;;;33.20;18.00;;;13.00;99.90;;;;;;5113462;28;21006;-73
2022/11/03 02:42:58;;;;;;;27.43;18.13;;;12.90;99.90;;;;;;5113411;28;20414;-72
2022/11/03 02:45:25;;;;;;;25.93;18.20;;;12.90;99.90;;;;;;5095007;28;20516;-76
2022/11/03 02:47:54;;;;;;;24.90;15.90;;;12.90;99.90;;;;;;5095706;28;20775;-76
2022/11/03 02:50:21;;;;;;;29.00;16.87;;;12.90;99.90;;;;;;5098633;28;20499;-76
2022/11/03 02:52:47;;;;;;;27.23;17.77;;;12.80;99.90;;;;;;5098773;28;20447;-73
2022/11/03 02:55:38;;;;;;;23.93;17.00;;;12.90;99.90;;;;;;5098646;28;20455;-76
2022/11/03 02:58:16;;;;;;;28.43;17.67;;;12.80;99.90;;;;;;5098784;28;20497;-76
2022/11/03 03:00:53;;;;;;;26.60;17.63;;;12.80;99.90;;;;;;5098542;28;20518;-73
2022/11/03 03:03:36;;;;;;;32.27;19.20;;;12.80;99.90;;;;;;5098490;28;20423;-72
2022/11/03 03:06:10;;;;;;;26.90;17.97;;;12.70;99.90;;;;;;5098333;28;20836;-73
2022/11/03 03:08:43;;;;;;;33.13;17.50;;;12.70;99.90;;;;;;5116650;28;20408;-73
2022/11/03 03:11:11;;;;;;;29.83;16.87;;;12.70;99.90;;;;;;5098375;28;20436;-73
2022/11/03 03:13:38;;;;;;;27.67;18.07;;;12.70;99.90;;;;;;5116761;28;20412;-76
2022/11/03 03:16:13;;;;;;;28.03;18.37;;;12.70;99.90;;;;;;5116516;28;20940;-73
2022/11/03 03:19:02;;;;;;;28.20;18.00;;;12.70;99.90;;;;;;5116514;28;20419;-75
2022/11/03 03:21:41;;;;;;;29.60;17.80;;;12.60;99.90;;;;;;5116628;28;20446;-72
2022/11/03 03:24:17;;;;;;;25.57;17.20;;;12.60;99.90;;;;;;5111414;28;20465;-72
2022/11/03 03:26:50;;;;;;;26.10;17.40;;;12.60;99.90;;;;;;5094809;28;20428;-73
2022/11/03 03:29:27;;;;;;;30.23;18.90;;;12.60;99.90;;;;;;5094818;28;20831;-76
2022/11/03 03:31:57;;;;;;;27.83;18.70;;;12.60;99.90;;;;;;5096011;28;20390;-76
2022/11/03 03:34:25;;;;;;;31.37;18.33;;;12.50;99.90;;;;;;5094661;28;20800;-73
2022/11/03 03:36:54;;;;;;;26.60;16.93;;;12.60;99.90;;;;;;5095727;28;20417;-76
2022/11/03 03:39:23;;;;;;;28.17;17.67;;;12.60;99.90;;;;;;5096134;28;20420;-75
2022/11/03 03:41:49;;;;;;;27.10;16.77;;;12.50;99.90;;;;;;5094490;28;20882;-72
2022/11/03 03:44:16;;;;;;;29.13;18.90;;;12.50;99.90;;;;;;5095849;28;20417;-76
2022/11/03 03:46:46;;;;;;;25.80;16.40;;;12.50;99.90;;;;;;5094366;28;20425;-76
2022/11/03 03:49:12;;;;;;;26.27;17.30;;;12.50;99.90;;;;;;5095414;28;20801;-73
2022/11/03 03:51:38;;;;;;;26.83;18.00;;;12.50;99.90;;;;;;5095565;28;20401;-72
2022/11/03 03:54:03;;;;;;;22.57;15.70;;;12.50;99.90;;;;;;5094244;28;20419;-76
2022/11/03 03:56:38;;;;;;;28.97;18.40;;;12.50;99.90;;;;;;5094170;28;20429;-72
2022/11/03 03:59:04;;;;;;;24.40;16.43;;;12.40;99.90;;;;;;5095472;28;20183;-76
2022/11/03 04:01:30;;;;;;;25.67;17.37;;;12.40;99.90;;;;;;5095435;28;20906;-75
2022/11/03 04:03:55;;;;;;;25.10;16.17;;;12.40;99.90;;;;;;5095640;28;20237;-76
2022/11/03 04:06:21;;;;;;;23.63;15.73;;;12.40;99.90;;;;;;5095049;28;20591;-76
2022/11/03 04:08:46;;;;;;;23.70;16.10;;;12.40;99.90;;;;;;5095423;28;20173;-72
2022/11/03 04:22:17;;;;;;;27.40;16.50;;;12.20;99.90;;;;;;5095131;28;20391;-76
2022/11/03 04:24:44;;;;;;;25.00;15.43;;;12.20;99.90;;;;;;5109458;28;20985;-72
2022/11/03 04:27:34;;;;;;;23.40;14.70;;;12.10;99.90;;;;;;5096917;28;20428;-72
2022/11/03 04:30:16;;;;;;;22.90;15.50;;;12.10;99.90;;;;;;5096868;28;20496;-76
2022/11/03 04:32:50;;;;;;;26.30;14.83;;;12.10;99.90;;;;;;5115310;28;20410;-73
2022/11/03 04:35:25;;;;;;;25.50;17.00;;;12.00;99.90;;;;;;5096709;28;20978;-73
2022/11/03 04:37:58;;;;;;;25.37;16.60;;;12.00;99.90;;;;;;5115164;28;20731;-73
2022/11/03 04:40:24;;;;;;;25.93;16.60;;;11.90;99.90;;;;;;5114825;28;20805;-73
2022/11/03 04:42:50;;;;;;;26.20;15.77;;;11.90;99.90;;;;;;5114928;28;20409;-73
2022/11/03 04:45:27;;;;;;;34.43;19.97;;;11.90;99.90;;;;;;5114712;28;20215;-73
2022/11/03 04:47:54;;;;;;;20.30;14.10;;;11.90;99.90;;;;;;5114973;28;20409;-76
2022/11/03 04:50:22;;;;;;;29.43;18.90;;;11.90;99.90;;;;;;5114711;28;20797;-76
2022/11/03 04:52:49;;;;;;;32.47;19.80;;;11.90;99.90;;;;;;5114716;28;20499;-73
2022/11/03 04:55:17;;;;;;;23.67;16.30;;;11.80;99.90;;;;;;5114537;28;20808;-73
2022/11/03 04:57:43;;;;;;;24.17;15.53;;;11.80;99.90;;;;;;5096225;28;20444;-73
2022/11/03 05:00:14;;;;;;;24.93;16.33;;;11.80;99.90;;;;;;5114066;28;20436;-76
2022/11/03 05:02:41;;;;;;;22.80;15.67;;;11.80;99.90;;;;;;5096466;28;20396;-74
2022/11/03 05:05:18;;;;;;;22.73;14.47;;;11.80;99.90;;;;;;5114291;28;20840;-76
2022/11/03 05:07:47;;;;;;;23.97;15.13;;;11.80;99.90;;;;;;5096183;28;20544;-76
2022/11/03 05:10:16;;;;;;;26.20;15.53;;;11.70;99.90;;;;;;5113996;28;20531;-76
2022/11/03 05:12:43;;;;;;;28.10;18.90;;;11.70;99.90;;;;;;5093745;28;20405;-76
2022/11/03 05:15:30;;;;;;;25.87;16.47;;;11.70;99.90;;;;;;5075701;28;20525;-73
2022/11/03 05:17:58;;;;;;;25.77;15.13;;;11.70;99.90;;;;;;5094253;28;20423;-72
2022/11/03 05:20:38;;;;;;;26.57;16.03;;;11.60;99.90;;;;;;5093721;28;20527;-73
2022/11/03 05:23:04;;;;;;;23.97;14.37;;;11.70;99.90;;;;;;5075437;28;20980;-72
2022/11/03 05:25:39;;;;;;;18.90;13.03;;;11.60;99.90;;;;;;5100509;28;20555;-72
2022/11/03 05:28:20;;;;;;;23.63;15.43;;;11.60;99.90;;;;;;5094437;28;20861;-73
2022/11/03 05:30:47;;;;;;;21.10;14.00;;;11.60;99.90;;;;;;5113463;28;20460;-76
2022/11/03 05:33:36;;;;;;;22.27;15.03;;;11.50;99.90;;;;;;5095538;28;20420;-73
2022/11/03 05:36:12;;;;;;;29.20;15.53;;;11.50;99.90;;;;;;5082356;28;20476;-72
2022/11/03 05:38:38;;;;;;;30.30;16.80;;;11.50;99.90;;;;;;5106711;28;20899;-73
2022/11/03 05:41:19;;;;;;;26.53;14.67;;;11.40;99.90;;;;;;5094141;28;20207;-72
2022/11/03 05:44:20;;;;;;;28.95;16.98;;;11.40;99.90;;;;;;5086258;28;20876;-72
2022/11/03 05:46:46;;;;;;;28.13;18.03;;;11.40;99.90;;;;;;5085082;28;20214;-72
2022/11/03 05:49:11;;;;;;;32.20;18.90;;;11.30;99.90;;;;;;5113783;28;20519;-76
2022/11/03 05:51:40;;;;;;;31.80;20.10;;;11.30;99.90;;;;;;5113534;28;20172;-73
2022/11/03 05:54:18;;;;;;;34.07;21.70;;;11.30;99.90;;;;;;5112479;28;20172;-76
2022/11/03 05:56:43;;;;;;;33.17;20.33;;;11.20;99.90;;;;;;5095591;28;20422;-76
2022/11/03 05:59:12;;;;;;;33.53;20.70;;;11.20;99.90;;;;;;5113225;28;20416;-77
2022/11/03 06:01:39;;;;;;;31.17;17.77;;;11.20;99.90;;;;;;5095272;28;20180;-76
2022/11/03 06:04:19;;;;;;;31.83;17.10;;;11.20;99.90;;;;;;5112875;28;20535;-72
2022/11/03 06:07:08;;;;;;;30.67;18.53;;;11.20;99.90;;;;;;5110989;28;20432;-76
2022/11/03 06:09:34;;;;;;;33.38;19.65;;;11.20;99.90;;;;;;5091379;28;20850;-72
2022/11/03 06:12:04;;;;;;;24.50;18.57;;;11.20;99.90;;;;;;5111595;28;20180;-75
2022/11/03 06:14:31;;;;;;;30.88;19.95;;;11.20;99.90;;;;;;5109923;28;20207;-73
2022/11/03 06:16:57;;;;;;;29.17;19.50;;;11.20;99.90;;;;;;5110764;28;20653;-72
2022/11/03 06:19:33;;;;;;;35.63;18.30;;;11.30;99.90;;;;;;5102107;28;20604;-72
2022/11/03 06:22:30;;;;;;;29.10;17.60;;;11.30;99.90;;;;;;5103847;28;20509;-73
2022/11/03 06:25:19;;;;;;;30.70;20.17;;;11.30;99.90;;;;;;5083371;28;20532;-76
2022/11/03 06:27:45;;;;;;;31.70;19.30;;;11.30;99.90;;;;;;5084793;28;20412;-76
2022/11/03 06:30:23;;;;;;;46.50;26.00;;;11.30;99.90;;;;;;5098857;28;20812;-72
2022/11/03 06:32:48;;;;;;;54.47;30.20;;;11.40;99.90;;;;;;5116112;28;20423;-76
2022/11/03 06:35:14;;;;;;;51.73;33.90;;;11.40;99.90;;;;;;5116462;28;20231;-73
2022/11/03 06:37:49;;;;;;;54.00;35.73;;;11.50;99.90;;;;;;5117148;28;20180;-72
2022/11/03 06:40:14;;;;;;;38.87;26.73;;;11.50;99.90;;;;;;5116262;28;20187;-72
2022/11/03 06:42:40;;;;;;;130.87;71.70;;;11.60;99.90;;;;;;5097006;28;20447;-76
2022/11/03 06:45:32;;;;;;;32.73;22.73;;;11.70;99.90;;;;;;5113114;28;20280;-76
2022/11/03 06:48:00;;;;;;;32.50;18.83;;;11.80;99.90;;;;;;5106958;28;20889;-76
2022/11/03 06:50:30;;;;;;;30.60;19.90;;;11.90;99.90;;;;;;5076057;28;20452;-72
2022/11/03 06:52:58;;;;;;;26.80;17.27;;;11.90;99.90;;;;;;5100699;28;20534;-72
2022/11/03 06:55:35;;;;;;;29.83;16.47;;;12.00;99.90;;;;;;5106136;28;20447;-76
2022/11/03 06:58:27;;;;;;;26.67;16.83;;;12.10;99.90;;;;;;5092542;28;20810;-76
2022/11/03 07:00:56;;;;;;;24.53;16.77;;;12.20;99.90;;;;;;5110252;28;20789;-76
2022/11/03 07:03:29;;;;;;;25.33;16.97;;;12.40;99.90;;;;;;5101289;28;20435;-76
2022/11/03 07:06:26;;;;;;;25.70;16.10;;;12.50;99.90;;;;;;5110217;28;20872;-76
2022/11/03 07:09:08;;;;;;;24.40;14.50;;;12.80;99.90;;;;;;5069942;28;20417;-72
2022/11/03 07:11:41;;;;;;;20.73;15.30;;;13.00;99.90;;;;;;5081661;28;21043;-76
2022/11/03 07:14:18;;;;;;;18.90;14.50;;;13.20;99.90;;;;;;5114479;28;20764;-76
2022/11/03 07:16:53;;;;;;;26.30;16.73;;;13.50;99.90;;;;;;5114045;28;20400;-77
2022/11/03 07:19:26;;;;;;;19.47;14.20;;;13.70;99.90;;;;;;5084504;28;20522;-72
2022/11/03 07:22:01;;;;;;;17.43;12.90;;;13.90;99.90;;;;;;5112965;28;20447;-76
2022/11/03 07:24:35;;;;;;;18.17;13.87;;;14.20;99.90;;;;;;5113750;28;21011;-72
2022/11/03 07:27:13;;;;;;;16.50;13.67;;;14.50;99.90;;;;;;5093846;28;20831;-72
2022/11/03 07:29:40;;;;;;;18.90;13.57;;;14.90;99.90;;;;;;5094198;28;20437;-72
2022/11/03 07:32:20;;;;;;;19.90;14.03;;;15.20;99.90;;;;;;5095245;28;20467;-76
2022/11/03 07:34:47;;;;;;;21.30;13.80;;;15.30;99.90;;;;;;5114080;28;20447;-72
2022/11/03 07:37:17;;;;;;;18.20;14.00;;;15.30;99.90;;;;;;5114139;28;20427;-76
2022/11/03 07:39:43;;;;;;;18.50;13.33;;;15.30;99.90;;;;;;5115759;28;20439;-73
2022/11/03 07:42:19;;;;;;;18.50;13.90;;;15.20;99.90;;;;;;5115817;28;20526;-73
2022/11/03 07:44:46;;;;;;;19.00;14.40;;;15.20;99.90;;;;;;5115282;28;20207;-72
2022/11/03 07:47:15;;;;;;;18.30;14.27;;;15.40;99.90;;;;;;5096911;28;20421;-73
2022/11/03 07:49:41;;;;;;;16.50;12.30;;;16.00;99.90;;;;;;5097033;28;20868;-76
2022/11/03 07:52:18;;;;;;;18.13;13.10;;;16.80;99.90;;;;;;5091676;28;20433;-76
2022/11/03 07:54:44;;;;;;;20.20;13.40;;;17.50;99.90;;;;;;5111990;28;20480;-73
2022/11/03 07:57:21;;;;;;;19.33;12.47;;;18.20;99.90;;;;;;5113758;28;20432;-73
2022/11/03 07:59:50;;;;;;;18.03;13.27;;;18.90;99.90;;;;;;5096828;28;20449;-73
2022/11/03 08:02:22;;;;;;;14.37;12.00;;;19.40;99.90;;;;;;5095417;28;20507;-73
2022/11/03 08:04:48;;;;;;;17.97;14.33;;;19.80;99.90;;;;;;5102907;28;20509;-72
2022/11/03 08:07:14;;;;;;;20.23;14.00;;;20.10;99.90;;;;;;5094640;28;20430;-73
2022/11/03 08:09:40;;;;;;;18.10;13.40;;;20.30;99.90;;;;;;5112861;28;20954;-73
2022/11/03 08:12:05;;;;;;;17.13;14.30;;;20.40;99.90;;;;;;5094893;28;20174;-73
2022/11/03 08:14:31;;;;;;;20.97;14.80;;;20.30;99.90;;;;;;5113026;28;20562;-73
2022/11/03 08:16:57;;;;;;;20.70;16.13;;;20.20;99.90;;;;;;5113258;28;20416;-76
2022/11/03 08:19:22;;;;;;;16.87;13.07;;;20.20;99.90;;;;;;5095255;28;20617;-77
2022/11/03 08:21:48;;;;;;;18.33;14.13;;;20.10;99.90;;;;;;5113024;28;20186;-73
2022/11/03 08:24:13;;;;;;;19.57;14.70;;;20.00;99.90;;;;;;5109993;28;20301;-73
2022/11/03 08:26:39;;;;;;;19.67;14.70;;;19.90;99.90;;;;;;5109334;28;20183;-73
2022/11/03 08:29:05;;;;;;;16.30;13.23;;;19.80;99.90;;;;;;5108970;28;20257;-72
2022/11/03 08:31:31;;;;;;;17.67;14.57;;;19.60;99.90;;;;;;5097608;28;20187;-72
2022/11/03 08:33:56;;;;;;;18.90;14.50;;;19.50;99.90;;;;;;5088222;28;20485;-76
2022/11/03 08:36:22;;;;;;;20.00;14.73;;;19.30;99.90;;;;;;5076762;28;20222;-77
2022/11/03 08:38:47;;;;;;;18.80;14.53;;;19.00;99.90;;;;;;5112603;28;20497;-77
2022/11/03 08:41:13;;;;;;;20.43;15.50;;;18.70;99.90;;;;;;5094155;28;20207;-77
2022/11/03 08:43:39;;;;;;;19.83;15.00;;;18.30;99.90;;;;;;5112932;28;20180;-73
2022/11/03 08:46:04;;;;;;;22.37;16.30;;;18.00;99.90;;;;;;5093381;28;20243;-77
2022/11/03 08:48:30;;;;;;;21.70;16.20;;;17.80;99.90;;;;;;5094529;28;20177;-77
2022/11/03 08:50:56;;;;;;;21.57;16.90;;;17.50;99.90;;;;;;5094048;28;20201;-72
2022/11/03 08:53:25;;;;;;;20.17;15.63;;;17.30;99.90;;;;;;5111094;28;20200;-77
2022/11/03 08:55:53;;;;;;;23.20;16.07;;;17.10;99.90;;;;;;5110135;28;20198;-77
2022/11/03 08:58:19;;;;;;;24.70;16.97;;;17.00;99.90;;;;;;5093810;28;20416;-73
2022/11/03 09:00:45;;;;;;;28.27;17.30;;;16.80;99.90;;;;;;5093936;28;20850;-77
2022/11/03 09:03:10;;;;;;;23.87;16.60;;;16.70;99.90;;;;;;5106405;28;20463;-72
2022/11/03 09:05:36;;;;;;;26.60;18.23;;;16.70;99.90;;;;;;5092224;28;20230;-73
2022/11/03 09:08:01;;;;;;;23.00;18.33;;;16.60;99.90;;;;;;5110122;28;20641;-72
2022/11/03 09:10:27;;;;;;;20.83;15.83;;;16.60;99.90;;;;;;5110096;28;20554;-76
2022/11/03 09:12:53;;;;;;;20.83;16.60;;;16.50;99.90;;;;;;5092266;28;20641;-76
2022/11/03 09:15:19;;;;;;;27.80;18.73;;;16.60;99.90;;;;;;5091671;28;20207;-77
2022/11/03 09:17:48;;;;;;;41.30;24.77;;;16.60;99.90;;;;;;5111752;28;20409;-74
2022/11/03 09:20:14;;;;;;;31.43;21.07;;;16.70;99.90;;;;;;5111642;28;20215;-73
2022/11/03 09:22:39;;;;;;;23.33;16.37;;;16.80;99.90;;;;;;5092788;28;20421;-72
2022/11/03 09:25:05;;;;;;;23.63;16.83;;;17.00;99.90;;;;;;5111395;28;20231;-72
2022/11/03 09:27:31;;;;;;;22.80;16.70;;;17.20;99.90;;;;;;5091703;28;20279;-76
2022/11/03 09:29:57;;;;;;;25.17;16.90;;;17.20;99.90;;;;;;5084837;28;20490;-77
2022/11/03 09:32:22;;;;;;;23.20;17.77;;;17.20;99.90;;;;;;5111030;28;20655;-75
2022/11/03 09:34:48;;;;;;;21.33;16.33;;;17.10;99.90;;;;;;5092848;28;20292;-73
2022/11/03 09:37:14;;;;;;;26.13;18.67;;;17.00;99.90;;;;;;5111748;28;20168;-76
2022/11/03 09:39:40;;;;;;;25.03;18.10;;;16.90;99.90;;;;;;5108651;28;20188;-73
2022/11/03 09:42:06;;;;;;;24.77;17.40;;;16.90;99.90;;;;;;5088248;28;20454;-76
2022/11/03 09:44:34;;;;;;;25.73;18.10;;;16.90;99.90;;;;;;5076649;28;20283;-73
2022/11/03 09:47:00;;;;;;;23.77;17.67;;;16.90;99.90;;;;;;5105306;28;20413;-72
2022/11/03 09:49:29;;;;;;;25.83;18.60;;;16.80;99.90;;;;;;5098383;28;20614;-72
2022/11/03 09:51:55;;;;;;;27.67;18.57;;;16.80;99.90;;;;;;5081436;28;20816;-72
2022/11/03 09:54:21;;;;;;;27.10;18.13;;;16.70;99.90;;;;;;5099749;28;20433;-72
2022/11/03 09:56:46;;;;;;;25.67;17.40;;;16.70;99.90;;;;;;5106171;28;20184;-72
2022/11/03 09:59:21;;;;;;;26.23;18.10;;;16.60;99.90;;;;;;5084833;28;20656;-76
2022/11/03 10:01:52;;;;;;;24.13;17.03;;;16.60;99.90;;;;;;5110912;28;20183;-72
2022/11/03 10:04:22;;;;;;;24.80;17.83;;;16.50;99.90;;;;;;5094527;28;20423;-73
2022/11/03 10:06:48;;;;;;;23.07;18.50;;;16.50;99.90;;;;;;5086428;28;20437;-72
2022/11/03 10:09:19;;;;;;;23.80;17.53;;;16.50;99.90;;;;;;5091268;28;21017;-73
2022/11/03 10:11:46;;;;;;;27.30;17.20;;;16.50;99.90;;;;;;5082792;28;20180;-72
2022/11/03 10:14:14;;;;;;;23.03;16.60;;;16.60;99.90;;;;;;5113619;28;20523;-72
2022/11/03 10:16:41;;;;;;;25.93;17.40;;;16.60;99.90;;;;;;5109558;28;20519;-72
2022/11/03 10:19:13;;;;;;;21.33;17.00;;;16.60;99.90;;;;;;5089810;28;20443;-77
2022/11/03 10:21:41;;;;;;;24.23;17.17;;;16.70;99.90;;;;;;5090652;28;20481;-76
2022/11/03 10:24:11;;;;;;;23.33;18.00;;;16.70;99.90;;;;;;5093400;28;20559;-75
2022/11/03 10:26:48;;;;;;;22.73;17.07;;;16.70;99.90;;;;;;5077855;28;20486;-76
2022/11/03 10:29:24;;;;;;;22.83;17.33;;;16.70;99.90;;;;;;5086424;28;20433;-76
2022/11/03 10:31:57;;;;;;;78.13;52.67;;;16.70;99.90;;;;;;5095410;28;20516;-77
2022/11/03 10:34:35;;;;;;;27.50;18.63;;;16.80;99.90;;;;;;5095244;28;21028;-76
2022/11/03 10:37:23;;;;;;;25.23;18.80;;;16.80;99.90;;;;;;5078621;28;20440;-76
2022/11/03 10:39:53;;;;;;;21.07;17.60;;;16.80;99.90;;;;;;5102471;28;20458;-76
2022/11/03 10:42:26;;;;;;;25.13;19.07;;;16.80;99.90;;;;;;5107121;28;20575;-76
2022/11/03 10:44:53;;;;;;;24.77;17.27;;;16.90;99.90;;;;;;5108767;28;20463;-76
2022/11/03 10:47:31;;;;;;;25.93;18.77;;;16.90;99.90;;;;;;5088215;28;20440;-72
2022/11/03 10:49:58;;;;;;;24.83;18.47;;;16.90;99.90;;;;;;5103490;28;20895;-77
2022/11/03 10:52:26;;;;;;;22.63;18.63;;;16.90;99.90;;;;;;5107546;28;20456;-76
2022/11/03 10:54:55;;;;;;;26.60;18.87;;;17.00;99.90;;;;;;5088699;28;20530;-73
2022/11/03 10:57:22;;;;;;;26.20;17.40;;;17.00;99.90;;;;;;5101016;28;20432;-76
2022/11/03 10:59:49;;;;;;;26.23;19.93;;;17.00;99.90;;;;;;5102319;27;20515;-73
2022/11/03 11:02:18;;;;;;;26.80;19.47;;;17.10;99.90;;;;;;5091687;28;20437;-76
2022/11/03 11:04:50;;;;;;;22.10;18.23;;;17.10;99.90;;;;;;5092899;28;20460;-72
2022/11/03 11:07:24;;;;;;;24.13;18.50;;;17.10;99.90;;;;;;5091427;28;20433;-73
2022/11/03 11:09:53;;;;;;;29.67;19.53;;;17.10;99.90;;;;;;5091598;28;20589;-73
2022/11/03 11:12:23;;;;;;;27.17;18.50;;;17.10;99.90;;;;;;5094941;28;20460;-72
2022/11/03 11:14:59;;;;;;;26.00;19.20;;;17.20;99.90;;;;;;5112723;28;20534;-76
2022/11/03 11:17:45;;;;;;;27.43;19.80;;;17.20;99.90;;;;;;5090753;28;20479;-77
2022/11/03 11:20:18;;;;;;;24.40;18.47;;;17.20;99.90;;;;;;5081423;28;21082;-77
2022/11/03 11:22:44;;;;;;;26.87;20.40;;;17.20;99.90;;;;;;5095152;28;20766;-76
2022/11/03 11:25:10;;;;;;;28.70;20.80;;;17.20;99.90;;;;;;5113510;28;20477;-72
2022/11/03 11:27:45;;;;;;;28.27;20.47;;;17.20;99.90;;;;;;5113141;28;20436;-76
2022/11/03 11:30:36;;;;;;;24.50;18.30;;;17.20;99.90;;;;;;5094968;28;20200;-76
2022/11/03 11:33:23;;;;;;;25.77;20.00;;;17.20;99.90;;;;;;5095976;28;20802;-76
2022/11/03 11:35:52;;;;;;;25.57;19.90;;;17.20;99.90;;;;;;5096296;28;20527;-73
2022/11/03 11:38:45;;;;;;;31.97;23.13;;;17.10;99.90;;;;;;5095845;28;20779;-73
2022/11/03 11:41:11;;;;;;;28.13;19.20;;;17.10;99.90;;;;;;5092365;28;21036;-73
2022/11/03 11:43:37;;;;;;;28.60;21.17;;;17.10;99.90;;;;;;5092669;28;20421;-77
2022/11/03 11:46:21;;;;;;;26.90;19.53;;;17.10;99.90;;;;;;5103038;28;20697;-73
2022/11/03 11:49:01;;;;;;;28.33;19.97;;;17.10;99.90;;;;;;5092451;28;20640;-72
2022/11/03 11:51:27;;;;;;;26.50;19.50;;;17.00;99.90;;;;;;5087936;28;20465;-76
2022/11/03 11:53:53;;;;;;;31.23;22.30;;;17.00;99.90;;;;;;5106849;28;20925;-73
2022/11/03 11:56:19;;;;;;;30.70;20.93;;;17.00;99.90;;;;;;5106333;28;20900;-73
2022/11/03 11:58:55;;;;;;;33.20;21.40;;;17.00;99.90;;;;;;5111776;28;20468;-73
2022/11/03 12:01:21;;;;;;;30.57;22.17;;;16.90;99.90;;;;;;5113094;28;20629;-73
2022/11/03 12:03:48;;;;;;;28.23;21.13;;;16.90;99.90;;;;;;5112349;28;20428;-77
2022/11/03 12:06:14;;;;;;;31.07;21.80;;;16.90;99.90;;;;;;5093753;28;20209;-73
2022/11/03 12:08:40;;;;;;;31.13;22.20;;;16.90;99.90;;;;;;5102383;28;20425;-72
2022/11/03 12:11:08;;;;;;;32.10;22.83;;;16.90;99.90;;;;;;5104001;28;20429;-73
2022/11/03 12:13:43;;;;;;;32.73;22.10;;;16.90;99.90;;;;;;5089826;28;20440;-76
2022/11/03 12:16:25;;;;;;;37.50;23.60;;;16.90;99.90;;;;;;5089078;28;20476;-77
2022/11/03 12:18:52;;;;;;;29.83;20.17;;;16.90;99.90;;;;;;5086700;28;20437;-76
2022/11/03 12:21:44;;;;;;;34.60;23.30;;;16.80;99.90;;;;;;5089017;28;20448;-77
2022/11/03 12:24:35;;;;;;;34.90;23.30;;;16.80;99.90;;;;;;5087507;28;20653;-76
2022/11/03 12:27:02;;;;;;;34.03;23.13;;;16.80;99.90;;;;;;5105274;27;20475;-72
2022/11/03 12:29:28;;;;;;;36.23;23.17;;;16.80;99.90;;;;;;5109473;28;20483;-77
2022/11/03 12:31:54;;;;;;;35.17;24.13;;;16.80;99.90;;;;;;5108197;28;20424;-76
2022/11/03 12:34:20;;;;;;;32.77;23.33;;;16.80;99.90;;;;;;5086018;28;20184;-76
2022/11/03 12:36:46;;;;;;;29.80;21.73;;;16.80;99.90;;;;;;5107869;28;20412;-72
2022/11/03 12:39:12;;;;;;;32.83;22.10;;;16.80;99.90;;;;;;5085212;28;20271;-72
2022/11/03 12:41:37;;;;;;;32.03;22.93;;;16.70;99.90;;;;;;5083891;28;20577;-73
2022/11/03 12:44:04;;;;;;;30.10;21.73;;;16.70;99.90;;;;;;5088403;28;20176;-76
2022/11/03 12:46:30;;;;;;;35.77;24.10;;;16.70;99.90;;;;;;5097778;28;20479;-72
2022/11/03 12:48:56;;;;;;;33.33;21.27;;;16.70;99.90;;;;;;5084801;28;20444;-75
2022/11/03 12:51:23;;;;;;;32.23;22.40;;;16.70;99.90;;;;;;5091627;28;20201;-77
2022/11/03 12:53:49;;;;;;;32.30;22.20;;;16.70;99.90;;;;;;5089142;28;20433;-76
2022/11/03 12:56:16;;;;;;;39.13;24.50;;;16.70;99.90;;;;;;5103827;28;20455;-77
2022/11/03 12:58:42;;;;;;;30.83;21.53;;;16.70;99.90;;;;;;5088895;28;20465;-73
2022/11/03 13:01:08;;;;;;;35.47;23.73;;;16.70;99.90;;;;;;5106815;28;20536;-76